Time;durP1;ratioP1;P1;durP2;ratioP2;P2;SDS_P1;SDS_P2;PMS_P1;PMS_P2;Temp;Humidity;BMP_temperature;BMP_pressure;BME280_temperature;BME280_humidity;BME280_pressure;Samples;Min_cycle;Max_cycle;Signal;HPM_P1;HPM_P2
2023/05/08 04:02:08;;;;;;;13.13;10.82;;;16.00;99.90;;;;;;5359745;22;20071;-75
2023/05/08 04:04:39;;;;;;;11.88;10.48;;;16.00;99.90;;;;;;5036096;28;20029;-76
2023/05/08 04:07:42;;;;;;;11.95;10.63;;;16.00;99.90;;;;;;5030434;28;20022;-75
2023/05/08 04:10:10;;;;;;;16.48;11.18;;;16.00;99.90;;;;;;4938303;29;20050;-75
2023/05/08 04:13:00;;;;;;;15.23;11.02;;;16.00;99.90;;;;;;4919605;29;20040;-75
2023/05/08 04:15:29;;;;;;;15.32;12.10;;;16.00;99.90;;;;;;4919776;29;20043;-75
2023/05/08 04:17:59;;;;;;;17.58;11.40;;;16.00;99.90;;;;;;4917941;29;20036;-75
2023/05/08 04:20:26;;;;;;;14.00;10.98;;;16.00;99.90;;;;;;4917491;29;20040;-75
2023/05/08 04:22:53;;;;;;;12.02;10.77;;;16.00;99.90;;;;;;4901502;29;20048;-75
2023/05/08 04:25:20;;;;;;;12.55;11.10;;;16.00;99.90;;;;;;4917463;29;20067;-75
2023/05/08 04:27:46;;;;;;;;;;;16.00;99.90;;;;;;4904797;29;20056;-76
2023/05/08 04:30:13;;;;;;;14.02;12.35;;;16.00;99.90;;;;;;4928872;29;19907;-76
2023/05/08 04:32:39;;;;;;;16.02;12.07;;;16.00;99.90;;;;;;4936103;29;20043;-75
2023/05/08 04:35:06;;;;;;;15.05;12.15;;;16.00;99.90;;;;;;4929967;29;20060;-75
2023/05/08 04:37:31;;;;;;;14.88;11.52;;;16.00;99.90;;;;;;4934234;29;20034;-76
2023/05/08 04:39:58;;;;;;;14.90;11.43;;;16.00;99.90;;;;;;4952042;29;20036;-75
2023/05/08 04:42:25;;;;;;;17.27;12.90;;;16.00;99.90;;;;;;4944134;29;20725;-69
2023/05/08 04:44:51;;;;;;;16.98;13.45;;;16.00;99.90;;;;;;4936704;28;20141;-69
2023/05/08 04:47:17;;;;;;;;;;;16.00;99.90;;;;;;5016664;28;20440;-69
2023/05/08 04:49:42;;;;;;;16.33;12.75;;;16.00;99.90;;;;;;5020369;28;19937;-75
2023/05/08 04:52:09;;;;;;;18.30;12.23;;;16.00;99.90;;;;;;5018512;28;20053;-75
2023/05/08 04:54:34;;;;;;;15.93;13.20;;;16.00;99.90;;;;;;5016772;28;20269;-75
2023/05/08 04:57:00;;;;;;;14.85;12.20;;;16.00;99.90;;;;;;5015165;28;20040;-68
2023/05/08 04:59:26;;;;;;;15.18;12.25;;;16.00;99.90;;;;;;5017281;28;20025;-68
2023/05/08 05:01:51;;;;;;;14.80;12.27;;;16.00;99.90;;;;;;4995294;28;20034;-69
2023/05/08 05:04:17;;;;;;;16.67;13.38;;;16.10;99.90;;;;;;4995070;28;20023;-72
2023/05/08 05:06:43;;;;;;;15.35;13.43;;;16.10;99.90;;;;;;4997200;28;20076;-69
2023/05/08 05:09:10;;;;;;;22.02;13.85;;;16.10;99.90;;;;;;5006159;28;20041;-68
2023/05/08 05:11:36;;;;;;;17.33;14.10;;;16.10;99.90;;;;;;5015294;28;20438;-72
2023/05/08 05:14:01;;;;;;;16.60;13.37;;;16.10;99.90;;;;;;5013416;28;20026;-73
2023/05/08 05:16:27;;;;;;;15.70;13.05;;;16.10;99.90;;;;;;5014671;28;20030;-73
2023/05/08 05:18:52;;;;;;;17.70;14.00;;;16.10;99.90;;;;;;5015385;28;20076;-73
2023/05/08 05:21:18;;;;;;;16.00;13.13;;;16.20;99.90;;;;;;5017634;28;20068;-73
2023/05/08 05:23:44;;;;;;;17.33;13.95;;;16.20;99.90;;;;;;5013572;28;20036;-73
2023/05/08 05:26:11;;;;;;;18.05;13.48;;;16.20;99.90;;;;;;5014695;28;20455;-72
2023/05/08 05:28:36;;;;;;;16.58;13.55;;;16.20;99.90;;;;;;5014489;28;20517;-72
2023/05/08 05:31:02;;;;;;;20.55;14.43;;;16.20;99.90;;;;;;5015216;28;20095;-72
2023/05/08 05:33:28;;;;;;;26.27;15.75;;;16.20;99.90;;;;;;5014578;28;20029;-72
2023/05/08 05:35:54;;;;;;;17.92;14.25;;;16.10;99.90;;;;;;5014247;28;20120;-72
2023/05/08 05:38:19;;;;;;;21.48;16.05;;;16.00;99.90;;;;;;5013104;28;20033;-72
2023/05/08 05:40:45;;;;;;;19.67;15.35;;;16.00;99.90;;;;;;5014317;28;20052;-72
2023/05/08 05:43:10;;;;;;;21.23;16.30;;;16.10;99.90;;;;;;5012580;28;20026;-71
2023/05/08 05:45:38;;;;;;;21.13;14.40;;;16.20;99.90;;;;;;5012033;28;20102;-72
2023/05/08 05:48:04;;;;;;;18.30;15.40;;;16.20;99.90;;;;;;5011689;28;20034;-71
2023/05/08 05:50:30;;;;;;;21.20;15.55;;;16.20;99.90;;;;;;5013397;28;20038;-71
2023/05/08 05:52:56;;;;;;;22.88;15.82;;;16.20;99.90;;;;;;5015788;28;20030;-72
2023/05/08 05:55:21;;;;;;;21.75;16.25;;;16.20;99.90;;;;;;5014543;28;20037;-71
2023/05/08 05:57:50;;;;;;;24.33;16.50;;;16.20;99.90;;;;;;5020017;28;20034;-73
2023/05/08 06:00:16;;;;;;;18.58;15.57;;;16.20;99.90;;;;;;5014235;28;20447;-71
2023/05/08 06:02:42;;;;;;;18.42;15.60;;;16.20;99.90;;;;;;5015611;28;20092;-73
2023/05/08 06:05:09;;;;;;;24.45;18.27;;;16.30;99.90;;;;;;5012340;28;20470;-73
2023/05/08 06:07:34;;;;;;;;;;;16.30;99.90;;;;;;5013059;28;20026;-72
2023/05/08 06:10:00;;;;;;;23.08;18.38;;;16.30;99.90;;;;;;5013787;28;19960;-73
2023/05/08 06:12:27;;;;;;;22.35;17.60;;;16.30;99.90;;;;;;5013313;28;20022;-71
2023/05/08 06:14:53;;;;;;;23.17;17.80;;;16.30;99.90;;;;;;5011489;28;20037;-71
2023/05/08 06:17:18;;;;;;;25.05;17.80;;;16.20;99.90;;;;;;5012215;28;20033;-73
2023/05/08 06:19:49;;;;;;;27.67;19.10;;;16.30;99.90;;;;;;5010421;28;20037;-71
2023/05/08 06:22:15;;;;;;;24.70;19.65;;;16.40;99.90;;;;;;4993451;28;20018;-72
2023/05/08 06:24:42;;;;;;;26.25;19.30;;;16.40;99.90;;;;;;5028136;28;20022;-72
2023/05/08 06:27:07;;;;;;;;;;;16.40;99.90;;;;;;5010007;28;20148;-71
2023/05/08 06:29:33;;;;;;;21.13;16.27;;;16.40;99.90;;;;;;5008657;28;19948;-72
2023/05/08 06:31:59;;;;;;;26.92;21.23;;;16.40;99.90;;;;;;4999048;28;20105;-71
2023/05/08 06:34:24;;;;;;;27.48;22.35;;;16.40;99.90;;;;;;5005599;28;20037;-72
2023/05/08 06:36:50;;;;;;;26.13;19.35;;;16.40;99.90;;;;;;5016540;28;20026;-72
2023/05/08 06:39:15;;;;;;;24.07;18.73;;;16.30;99.90;;;;;;5017324;28;20044;-72
2023/05/08 06:41:41;;;;;;;25.17;19.52;;;16.30;99.90;;;;;;5015430;28;20063;-71
2023/05/08 06:44:06;;;;;;;25.17;19.90;;;16.30;99.90;;;;;;5013907;28;20042;-71
2023/05/08 06:46:32;;;;;;;24.90;18.77;;;16.30;99.90;;;;;;5014088;28;20526;-71
2023/05/08 06:48:57;;;;;;;23.38;17.90;;;16.30;99.90;;;;;;5014053;28;20034;-71
2023/05/08 06:51:23;;;;;;;23.97;18.33;;;16.30;99.90;;;;;;5014860;28;20026;-70
2023/05/08 06:53:48;;;;;;;25.05;18.48;;;16.40;99.90;;;;;;5015512;28;20257;-70
2023/05/08 06:56:14;;;;;;;24.42;18.38;;;16.30;99.90;;;;;;5015048;28;20065;-71
2023/05/08 06:58:39;;;;;;;24.58;17.50;;;16.30;99.90;;;;;;5017927;28;20489;-72
2023/05/08 07:01:05;;;;;;;24.10;19.27;;;16.40;99.90;;;;;;5016612;28;20124;-71
2023/05/08 07:03:31;;;;;;;25.15;19.02;;;16.50;99.90;;;;;;5017235;28;20389;-71
2023/05/08 07:05:56;;;;;;;23.77;18.83;;;16.50;99.90;;;;;;5015687;28;20067;-71
2023/05/08 07:08:22;;;;;;;24.90;19.17;;;16.70;99.90;;;;;;5018693;28;20075;-72
2023/05/08 07:10:48;;;;;;;21.92;17.45;;;16.80;99.90;;;;;;5018227;28;20026;-72
2023/05/08 07:13:18;;;;;;;24.05;17.35;;;16.90;99.90;;;;;;5017258;28;20033;-72
2023/05/08 07:15:44;;;;;;;26.30;18.88;;;16.90;99.90;;;;;;5016205;28;20038;-71
2023/05/08 07:18:09;;;;;;;27.15;20.88;;;17.10;99.90;;;;;;5017151;28;20022;-72
2023/05/08 07:20:35;;;;;;;30.20;21.88;;;17.10;99.90;;;;;;5016360;28;20068;-72
2023/05/08 07:23:01;;;;;;;30.55;23.42;;;17.10;99.90;;;;;;5017018;28;20084;-71
2023/05/08 07:25:27;;;;;;;29.30;22.30;;;17.10;99.90;;;;;;5016576;28;20026;-71
2023/05/08 07:27:52;;;;;;;27.00;21.88;;;17.20;99.90;;;;;;5017274;28;20022;-72
2023/05/08 07:30:18;;;;;;;32.22;23.90;;;17.20;99.90;;;;;;5015114;28;20038;-72
2023/05/08 07:32:43;;;;;;;31.13;24.38;;;17.20;99.90;;;;;;5017104;28;20034;-72
2023/05/08 07:35:11;;;;;;;29.23;23.67;;;17.30;99.90;;;;;;5017303;28;20033;-72
2023/05/08 07:37:37;;;;;;;28.85;22.75;;;17.40;99.90;;;;;;5016868;28;20163;-72
2023/05/08 07:40:03;;;;;;;;;;;17.30;99.90;;;;;;5017098;28;20025;-72
2023/05/08 07:42:29;;;;;;;28.02;22.17;;;17.30;99.90;;;;;;5015469;28;20315;-71
2023/05/08 07:44:54;;;;;;;31.05;23.20;;;17.40;99.90;;;;;;5015216;28;20061;-71
2023/05/08 07:47:20;;;;;;;27.87;21.73;;;17.40;99.90;;;;;;5016812;28;20030;-71
2023/05/08 07:49:45;;;;;;;29.30;22.58;;;17.30;99.90;;;;;;5028379;28;20279;-72
2023/05/08 07:52:11;;;;;;;29.98;21.50;;;17.40;99.90;;;;;;5017687;28;20030;-72
2023/05/08 07:54:36;;;;;;;28.92;21.77;;;17.40;99.90;;;;;;5018073;28;20090;-71
2023/05/08 07:57:02;;;;;;;27.30;20.88;;;17.30;99.90;;;;;;5017945;28;20124;-72
2023/05/08 07:59:27;;;;;;;24.67;20.45;;;17.30;99.90;;;;;;5014864;28;20116;-71
2023/05/08 08:01:53;;;;;;;26.08;20.83;;;17.30;99.90;;;;;;5016125;28;20052;-72
2023/05/08 08:04:19;;;;;;;24.75;19.95;;;17.30;99.90;;;;;;5015719;28;20022;-72
2023/05/08 08:06:44;;;;;;;26.77;19.60;;;17.40;99.90;;;;;;5016415;28;20398;-71
2023/05/08 08:09:10;;;;;;;25.55;19.80;;;17.40;99.90;;;;;;5014911;28;20026;-71
2023/05/08 08:11:35;;;;;;;28.17;20.05;;;17.40;99.90;;;;;;5015743;28;20406;-71
2023/05/08 08:14:01;;;;;;;28.10;20.77;;;17.40;99.90;;;;;;5016285;28;20046;-72
2023/05/08 08:16:27;;;;;;;24.52;19.92;;;17.50;99.90;;;;;;5015625;28;20026;-71
2023/05/08 08:18:52;;;;;;;24.85;19.65;;;17.50;99.90;;;;;;5015814;28;20157;-71
2023/05/08 08:21:19;;;;;;;24.60;19.80;;;17.40;99.90;;;;;;5015908;28;20022;-72
2023/05/08 08:23:44;;;;;;;30.90;22.33;;;17.40;99.90;;;;;;5015630;28;20068;-72
2023/05/08 08:26:10;;;;;;;28.98;23.38;;;17.50;99.90;;;;;;5014174;28;20022;-72
2023/05/08 08:28:36;;;;;;;24.77;19.85;;;17.60;99.90;;;;;;5015405;28;20079;-72
2023/05/08 08:31:01;;;;;;;24.40;20.00;;;17.70;99.90;;;;;;5015514;28;20030;-72
2023/05/08 08:33:30;;;;;;;24.50;20.45;;;17.60;99.90;;;;;;5014622;28;20033;-72
2023/05/08 08:35:55;;;;;;;24.63;19.25;;;17.50;99.90;;;;;;5017710;28;20478;-72
2023/05/08 08:38:21;;;;;;;26.17;20.17;;;17.50;99.90;;;;;;5018745;28;20036;-72
2023/05/08 08:40:46;;;;;;;25.50;20.55;;;17.50;99.90;;;;;;5029840;28;20065;-72
2023/05/08 08:43:12;;;;;;;24.27;18.65;;;17.60;99.90;;;;;;5026741;28;20045;-72
2023/05/08 08:45:38;;;;;;;24.83;19.50;;;17.60;99.90;;;;;;5015788;28;20026;-72
2023/05/08 08:48:08;;;;;;;25.23;18.38;;;17.70;99.90;;;;;;5014086;28;20037;-71
2023/05/08 08:50:35;;;;;;;31.27;25.80;;;17.80;99.90;;;;;;5015186;28;20084;-71
2023/05/08 08:53:11;;;;;;;26.50;21.25;;;17.80;99.90;;;;;;5014845;28;20144;-71
2023/05/08 08:55:42;;;;;;;26.90;19.63;;;17.90;99.90;;;;;;5013791;28;20022;-71
2023/05/08 08:58:20;;;;;;;25.38;18.83;;;18.00;99.90;;;;;;5014884;28;20545;-71
2023/05/08 09:00:46;;;;;;;23.33;18.60;;;18.20;99.90;;;;;;5012660;28;20173;-71
2023/05/08 09:03:13;;;;;;;26.65;20.02;;;18.20;99.90;;;;;;5014913;28;20475;-72
2023/05/08 09:05:39;;;;;;;26.35;20.98;;;18.20;99.90;;;;;;5013657;28;20108;-72
2023/05/08 09:08:06;;;;;;;21.27;17.55;;;18.00;99.90;;;;;;5019704;28;20505;-72
2023/05/08 09:10:31;;;;;;;25.27;18.60;;;18.10;99.90;;;;;;5020782;28;20029;-71
2023/05/08 09:12:57;;;;;;;22.38;17.55;;;18.20;99.90;;;;;;5017943;28;20382;-73
2023/05/08 09:15:22;;;;;;;23.20;18.50;;;18.30;99.90;;;;;;5020958;28;20053;-73
2023/05/08 09:17:48;;;;;;;21.77;17.55;;;18.40;99.90;;;;;;5015335;28;20056;-73
2023/05/08 09:20:17;;;;;;;23.77;18.55;;;18.20;99.90;;;;;;5015231;28;20442;-73
2023/05/08 09:22:43;;;;;;;21.05;17.77;;;18.10;99.90;;;;;;5014424;28;20092;-73
2023/05/08 09:25:09;;;;;;;21.25;16.92;;;18.10;99.90;;;;;;5013521;28;20053;-73
2023/05/08 09:27:35;;;;;;;23.98;17.67;;;18.00;99.90;;;;;;5013424;28;20034;-73
2023/05/08 09:30:08;;;;;;;;;;;18.00;99.90;;;;;;5015200;28;20462;-72
2023/05/08 09:32:39;;;;;;;22.92;17.48;;;18.10;99.90;;;;;;5014292;28;20354;-72
2023/05/08 09:35:06;;;;;;;24.48;18.40;;;18.30;99.90;;;;;;5014821;28;20507;-72
2023/05/08 09:37:32;;;;;;;23.58;18.05;;;18.30;99.90;;;;;;5017131;28;20080;-72
2023/05/08 09:40:24;;;;;;;20.58;16.45;;;18.30;99.90;;;;;;5015972;28;20052;-73
2023/05/08 09:42:50;;;;;;;24.52;17.15;;;18.20;99.90;;;;;;5013988;28;20029;-72
2023/05/08 09:45:30;;;;;;;21.95;19.15;;;18.20;99.90;;;;;;5013002;28;20052;-73
2023/05/08 09:47:56;;;;;;;23.70;17.90;;;18.20;99.90;;;;;;5013174;28;20022;-72
2023/05/08 09:50:22;;;;;;;22.35;18.20;;;18.30;99.90;;;;;;5014378;28;20159;-72
2023/05/08 09:52:49;;;;;;;;;;;18.40;99.90;;;;;;5013019;28;20037;-72
2023/05/08 09:55:15;;;;;;;21.60;17.88;;;18.40;99.90;;;;;;5012848;28;19912;-72
2023/05/08 09:57:51;;;;;;;24.83;20.35;;;18.30;99.90;;;;;;5014058;28;20030;-72
2023/05/08 10:00:17;;;;;;;23.98;19.42;;;18.30;99.90;;;;;;5013783;28;20072;-72
2023/05/08 10:02:57;;;;;;;24.52;19.42;;;18.30;99.90;;;;;;5014069;28;20062;-72
2023/05/08 10:05:28;;;;;;;25.25;18.70;;;18.30;99.90;;;;;;5012807;28;20029;-72
2023/05/08 10:07:54;;;;;;;36.88;25.60;;;18.20;99.90;;;;;;5012607;28;20026;-72
2023/05/08 10:10:25;;;;;;;27.52;20.02;;;18.10;99.90;;;;;;5013812;28;20026;-72
2023/05/08 10:12:52;;;;;;;23.15;19.08;;;18.10;99.90;;;;;;5037057;22;20244;-73
2023/05/08 10:15:17;;;;;;;;;;;17.90;99.90;;;;;;5010080;28;20065;-74
2023/05/08 10:18:04;;;;;;;21.45;18.50;;;17.90;99.90;;;;;;4994329;28;19905;-74
2023/05/08 10:20:30;;;;;;;22.38;18.92;;;18.00;99.90;;;;;;4994666;28;20081;-73
2023/05/08 10:22:57;;;;;;;21.67;18.50;;;18.10;99.90;;;;;;5015095;28;20042;-73
2023/05/08 10:25:24;;;;;;;19.63;17.42;;;18.00;99.90;;;;;;5012264;28;20117;-73
2023/05/08 10:27:57;;;;;;;27.75;21.90;;;17.90;99.90;;;;;;5013729;28;20037;-74
2023/05/08 10:30:24;;;;;;;22.23;18.85;;;18.00;99.90;;;;;;5013349;28;20030;-74
2023/05/08 10:32:54;;;;;;;23.27;19.33;;;18.10;99.90;;;;;;5012683;28;20076;-73
2023/05/08 10:35:20;;;;;;;21.85;17.77;;;18.10;99.90;;;;;;5013637;28;20072;-73
2023/05/08 10:37:47;;;;;;;23.15;18.02;;;18.20;99.90;;;;;;5013996;28;20030;-74
2023/05/08 10:40:14;;;;;;;23.95;17.23;;;18.10;99.90;;;;;;5013658;28;20034;-73
2023/05/08 10:42:40;;;;;;;28.65;22.98;;;18.00;99.90;;;;;;5011831;28;20517;-74
2023/05/08 10:45:07;;;;;;;;;;;18.00;99.90;;;;;;5022952;28;20347;-73
2023/05/08 10:47:44;;;;;;;23.17;16.90;;;18.00;99.90;;;;;;5031512;28;19916;-74
2023/05/08 10:50:27;;;;;;;21.88;16.58;;;17.90;99.90;;;;;;5031878;28;20036;-74
2023/05/08 10:53:07;;;;;;;20.83;16.08;;;17.90;99.90;;;;;;5031856;28;20106;-73
2023/05/08 10:55:36;;;;;;;24.13;16.10;;;18.10;99.90;;;;;;5031807;28;20509;-74
2023/05/08 10:58:08;;;;;;;19.35;14.45;;;18.20;99.90;;;;;;5032396;28;20219;-75
2023/05/08 11:00:52;;;;;;;23.00;17.17;;;18.20;99.90;;;;;;5031326;28;20032;-74
2023/05/08 11:03:31;;;;;;;18.98;15.52;;;18.30;99.90;;;;;;5033005;28;20029;-74
2023/05/08 11:05:58;;;;;;;19.60;15.15;;;18.30;99.90;;;;;;5031585;28;20025;-75
2023/05/08 11:08:28;;;;;;;27.70;17.48;;;18.40;99.90;;;;;;5031622;28;20021;-74
2023/05/08 11:11:03;;;;;;;17.85;13.93;;;18.50;99.90;;;;;;5031454;28;20048;-74
2023/05/08 11:13:37;;;;;;;19.50;14.95;;;18.60;99.90;;;;;;5031491;28;20037;-74
2023/05/08 11:16:09;;;;;;;17.02;14.18;;;18.60;99.90;;;;;;5032431;28;20125;-74
2023/05/08 11:18:35;;;;;;;17.40;13.90;;;18.50;99.90;;;;;;5031750;28;20370;-74
2023/05/08 11:21:05;;;;;;;18.33;14.13;;;18.50;99.90;;;;;;5031480;28;20033;-74
2023/05/08 11:23:35;;;;;;;18.63;13.65;;;18.50;99.90;;;;;;5034045;28;20032;-73
2023/05/08 11:26:11;;;;;;;17.73;13.77;;;18.30;99.90;;;;;;5035170;28;20033;-73
2023/05/08 11:28:53;;;;;;;15.98;13.30;;;18.20;99.90;;;;;;5034981;28;20022;-73
2023/05/08 11:31:19;;;;;;;19.52;15.55;;;18.10;99.90;;;;;;5036049;28;20026;-74
2023/05/08 11:33:45;;;;;;;16.05;13.50;;;18.20;99.90;;;;;;5034899;28;20514;-73
2023/05/08 11:36:21;;;;;;;16.70;14.10;;;18.10;99.90;;;;;;5036172;28;20053;-73
2023/05/08 11:39:11;;;;;;;18.00;13.43;;;18.10;99.90;;;;;;5035228;28;20083;-74
2023/05/08 11:41:38;;;;;;;16.95;14.07;;;18.10;99.90;;;;;;5034783;28;20055;-74
2023/05/08 11:44:03;;;;;;;;;;;17.90;99.90;;;;;;5036294;28;20022;-73
2023/05/08 11:46:41;;;;;;;15.52;13.60;;;17.90;99.90;;;;;;5034745;28;19924;-74
2023/05/08 11:49:15;;;;;;;16.80;13.27;;;17.80;99.90;;;;;;5035600;28;20037;-74
2023/05/08 11:51:43;;;;;;;16.13;13.40;;;17.80;99.90;;;;;;5036250;28;20026;-73
2023/05/08 11:54:18;;;;;;;21.52;14.23;;;17.80;99.90;;;;;;5035066;28;20389;-73
2023/05/08 11:56:52;;;;;;;14.43;12.95;;;17.80;99.90;;;;;;5035945;28;20390;-73
2023/05/08 11:59:18;;;;;;;15.68;13.50;;;17.90;99.90;;;;;;5034228;28;20036;-73
2023/05/08 12:01:47;;;;;;;17.02;13.27;;;18.10;99.90;;;;;;5035999;28;20061;-74
2023/05/08 12:04:12;;;;;;;15.18;13.02;;;18.10;99.90;;;;;;5034376;28;20037;-73
2023/05/08 12:06:39;;;;;;;31.77;24.55;;;18.20;99.90;;;;;;5034407;28;20136;-73
2023/05/08 12:09:16;;;;;;;15.25;12.27;;;18.30;99.90;;;;;;5034440;28;20030;-74
2023/05/08 12:11:44;;;;;;;16.70;12.35;;;18.30;99.90;;;;;;5035720;28;20561;-74
2023/05/08 12:14:11;;;;;;;12.50;11.20;;;18.20;99.90;;;;;;5034040;28;20030;-72
2023/05/08 12:16:38;;;;;;;14.88;11.77;;;18.20;99.90;;;;;;5035477;28;20502;-74
2023/05/08 12:19:08;;;;;;;16.73;12.32;;;18.20;99.90;;;;;;5034869;28;20060;-74
2023/05/08 12:21:35;;;;;;;15.18;11.68;;;18.20;99.90;;;;;;5035898;28;20485;-74
2023/05/08 12:24:04;;;;;;;;;;;18.20;99.90;;;;;;5035042;28;20025;-75
2023/05/08 12:26:34;;;;;;;16.13;11.43;;;18.30;99.90;;;;;;5036467;28;19996;-75
2023/05/08 12:29:00;;;;;;;12.23;11.00;;;18.40;99.90;;;;;;5036236;28;20104;-74
2023/05/08 12:31:26;;;;;;;13.30;11.90;;;18.50;99.90;;;;;;5036792;28;20113;-74
2023/05/08 12:33:53;;;;;;;12.27;9.93;;;18.60;99.90;;;;;;5034848;28;20029;-74
2023/05/08 12:36:18;;;;;;;12.30;10.55;;;18.70;99.90;;;;;;5034376;28;20017;-75
2023/05/08 12:38:44;;;;;;;11.35;10.15;;;18.70;99.90;;;;;;5035093;28;20129;-74
2023/05/08 12:41:10;;;;;;;14.18;12.18;;;18.90;99.90;;;;;;5035438;28;20099;-74
2023/05/08 12:43:36;;;;;;;11.43;9.80;;;18.90;99.90;;;;;;5035837;28;20026;-74
2023/05/08 12:46:02;;;;;;;;;;;18.90;99.90;;;;;;5034090;28;20120;-75
2023/05/08 12:48:29;;;;;;;12.17;10.47;;;18.90;99.90;;;;;;5034198;28;19911;-74
2023/05/08 12:51:00;;;;;;;14.68;11.60;;;18.90;99.90;;;;;;5033824;28;20056;-74
2023/05/08 12:53:30;;;;;;;15.65;11.60;;;19.00;99.90;;;;;;5034557;28;20025;-74
2023/05/08 12:55:57;;;;;;;13.98;11.50;;;19.20;99.90;;;;;;5034919;28;20539;-73
2023/05/08 12:58:24;;;;;;;13.85;10.43;;;19.40;99.90;;;;;;5033861;28;20494;-74
2023/05/08 13:00:51;;;;;;;11.95;10.30;;;19.50;99.90;;;;;;5033313;28;20026;-73
2023/05/08 13:03:28;;;;;;;13.20;10.93;;;19.80;99.90;;;;;;5033474;28;20033;-74
2023/05/08 13:05:55;;;;;;;;;;;20.00;99.90;;;;;;5035470;28;20014;-75
2023/05/08 13:08:32;;;;;;;11.85;10.20;;;20.00;99.90;;;;;;5034865;28;20328;-74
2023/05/08 13:10:59;;;;;;;13.63;10.55;;;20.00;99.90;;;;;;5034040;28;20029;-74
2023/05/08 13:13:26;;;;;;;12.98;10.52;;;19.90;99.90;;;;;;5033892;28;20045;-74
2023/05/08 13:15:53;;;;;;;13.50;10.43;;;19.80;99.90;;;;;;5033781;28;20029;-75
2023/05/08 13:18:21;;;;;;;11.40;10.30;;;19.90;99.90;;;;;;5034793;28;20029;-74
2023/05/08 13:20:46;;;;;;;11.77;9.80;;;19.80;99.90;;;;;;5024446;28;20384;-75
2023/05/08 13:23:12;;;;;;;11.18;9.98;;;19.70;99.90;;;;;;5013366;28;20061;-74
2023/05/08 13:25:39;;;;;;;12.27;8.90;;;19.90;99.90;;;;;;5014398;28;20026;-73
2023/05/08 13:28:06;;;;;;;12.18;9.55;;;19.90;99.90;;;;;;5013309;28;20026;-74
2023/05/08 13:30:33;;;;;;;12.55;9.15;;;19.90;99.90;;;;;;5014509;28;20036;-74
2023/05/08 13:32:59;;;;;;;11.38;8.43;;;19.90;99.90;;;;;;5013640;28;20036;-74
2023/05/08 13:35:27;;;;;;;9.80;8.23;;;19.70;99.90;;;;;;5014571;28;20025;-74
2023/05/08 13:37:53;;;;;;;10.75;8.50;;;19.70;99.90;;;;;;5013208;28;20038;-74
2023/05/08 13:40:19;;;;;;;9.88;8.88;;;19.60;99.90;;;;;;5012938;28;20065;-74
2023/05/08 13:42:45;;;;;;;13.88;9.95;;;19.70;99.90;;;;;;5013317;28;20026;-73
2023/05/08 13:45:13;;;;;;;10.20;8.13;;;19.80;99.90;;;;;;5012066;28;20030;-73
2023/05/08 13:47:41;;;;;;;11.02;8.82;;;19.70;99.90;;;;;;5013369;28;20053;-72
2023/05/08 13:50:08;;;;;;;10.70;9.57;;;19.80;99.90;;;;;;5014882;28;20394;-75
2023/05/08 13:52:34;;;;;;;9.50;8.57;;;19.80;99.90;;;;;;5016721;28;20041;-73
2023/05/08 13:55:00;;;;;;;12.30;8.70;;;19.80;99.90;;;;;;5015305;28;20509;-74
2023/05/08 13:57:26;;;;;;;12.45;8.88;;;19.60;99.90;;;;;;5015165;28;20036;-78
2023/05/08 13:59:52;;;;;;;10.57;7.22;;;19.60;99.90;;;;;;5013969;28;20033;-75
2023/05/08 14:02:17;;;;;;;9.13;7.35;;;19.70;99.90;;;;;;5013849;28;20022;-74
2023/05/08 14:04:43;;;;;;;11.20;8.73;;;19.70;99.90;;;;;;5013907;28;20536;-75
2023/05/08 14:07:09;;;;;;;9.77;8.05;;;19.90;99.90;;;;;;5012677;28;20072;-74
2023/05/08 14:09:34;;;;;;;8.63;7.32;;;20.10;99.90;;;;;;5013808;28;20026;-75
2023/05/08 14:12:00;;;;;;;8.63;7.43;;;20.20;99.90;;;;;;5013856;28;20030;-74
2023/05/08 14:14:25;;;;;;;7.13;6.45;;;20.20;99.90;;;;;;5013966;28;20037;-74
2023/05/08 14:16:53;;;;;;;7.60;6.53;;;20.30;99.90;;;;;;5013656;28;20036;-74
2023/05/08 14:19:19;;;;;;;7.78;6.72;;;20.20;99.90;;;;;;5012602;28;20037;-74
2023/05/08 14:21:45;;;;;;;9.13;7.10;;;20.00;99.90;;;;;;5014270;28;20462;-74
2023/05/08 14:24:10;;;;;;;7.63;6.35;;;19.90;99.90;;;;;;5012700;28;20026;-74
2023/05/08 14:26:37;;;;;;;8.18;7.38;;;19.90;99.90;;;;;;5017759;28;20018;-73
2023/05/08 14:29:03;;;;;;;9.23;7.72;;;19.90;99.90;;;;;;5012633;28;20026;-73
2023/05/08 14:31:29;;;;;;;9.98;8.20;;;19.90;99.90;;;;;;5020936;28;20116;-73
2023/05/08 14:33:54;;;;;;;9.55;8.23;;;19.90;99.90;;;;;;5032470;28;20053;-74
2023/05/08 14:36:20;;;;;;;9.63;8.00;;;20.00;99.90;;;;;;5032468;28;20553;-75
2023/05/08 14:38:45;;;;;;;10.02;7.47;;;20.10;99.90;;;;;;5032257;28;20025;-73
2023/05/08 14:41:11;;;;;;;9.93;8.38;;;20.20;99.90;;;;;;5033194;28;20030;-72
2023/05/08 14:43:37;;;;;;;9.18;8.27;;;20.10;99.90;;;;;;5033361;28;20065;-70
2023/05/08 14:46:02;;;;;;;9.48;8.15;;;20.20;99.90;;;;;;5033004;28;20029;-72
2023/05/08 14:48:28;;;;;;;8.82;7.93;;;20.20;99.90;;;;;;5033507;28;20034;-73
2023/05/08 14:50:54;;;;;;;10.23;7.97;;;20.20;99.90;;;;;;5032368;28;20033;-70
2023/05/08 14:53:20;;;;;;;9.48;7.90;;;20.20;99.90;;;;;;5031597;28;20067;-70
2023/05/08 14:55:46;;;;;;;9.80;8.07;;;20.10;99.90;;;;;;5032760;28;20104;-70
2023/05/08 14:58:11;;;;;;;14.52;9.50;;;20.20;99.90;;;;;;5036918;28;20033;-71
2023/05/08 15:00:38;;;;;;;12.50;8.63;;;20.20;99.90;;;;;;5035358;28;20028;-73
2023/05/08 15:03:03;;;;;;;11.13;9.32;;;20.20;99.90;;;;;;5036213;28;20059;-73
2023/05/08 15:05:30;;;;;;;10.82;9.50;;;20.30;99.90;;;;;;5036299;28;20021;-74
2023/05/08 15:07:57;;;;;;;10.57;9.10;;;20.20;99.90;;;;;;5036687;28;20416;-72
2023/05/08 15:10:23;;;;;;;10.45;8.82;;;20.10;99.90;;;;;;5036772;28;20021;-73
2023/05/08 15:12:49;;;;;;;12.80;11.15;;;20.20;99.90;;;;;;5035890;28;20120;-72
2023/05/08 15:15:15;;;;;;;10.45;9.00;;;20.30;99.90;;;;;;5036866;28;20099;-73
2023/05/08 15:17:40;;;;;;;11.70;9.27;;;20.40;99.90;;;;;;5038313;28;20032;-72
2023/05/08 15:20:08;;;;;;;11.38;8.88;;;20.40;99.90;;;;;;5036273;28;20417;-74
2023/05/08 15:22:33;;;;;;;10.75;9.23;;;20.40;99.90;;;;;;5037155;28;20028;-74
2023/05/08 15:25:01;;;;;;;14.48;10.05;;;20.40;99.90;;;;;;5036887;28;20030;-72
2023/05/08 15:27:27;;;;;;;13.38;9.18;;;20.20;99.90;;;;;;5020699;28;20033;-73
2023/05/08 15:29:53;;;;;;;12.75;9.07;;;20.10;99.90;;;;;;5016895;28;20097;-73
2023/05/08 15:32:19;;;;;;;11.02;8.82;;;20.00;99.90;;;;;;5016894;28;20494;-72
2023/05/08 15:34:44;;;;;;;11.95;8.55;;;19.80;99.90;;;;;;5032189;28;20026;-73
2023/05/08 15:37:10;;;;;;;11.18;9.90;;;19.70;99.90;;;;;;5015233;28;20026;-73
2023/05/08 15:39:35;;;;;;;10.57;9.48;;;19.50;99.90;;;;;;5016905;28;20034;-72
2023/05/08 15:42:03;;;;;;;13.43;10.70;;;19.40;99.90;;;;;;5016898;28;20021;-72
2023/05/08 15:44:29;;;;;;;11.70;9.27;;;19.50;99.90;;;;;;5024714;28;20025;-72
2023/05/08 15:46:55;;;;;;;11.63;9.77;;;19.60;99.90;;;;;;5016741;28;20044;-72
2023/05/08 15:49:24;;;;;;;11.93;9.85;;;19.60;99.90;;;;;;5015483;28;20458;-72
2023/05/08 15:51:50;;;;;;;13.95;9.98;;;19.70;99.90;;;;;;5032191;28;20049;-71
2023/05/08 15:54:16;;;;;;;13.20;10.57;;;19.70;99.90;;;;;;5035743;28;20017;-71
2023/05/08 15:56:41;;;;;;;10.27;9.27;;;19.70;99.90;;;;;;5035357;28;20025;-72
2023/05/08 15:59:07;;;;;;;14.18;9.57;;;19.70;99.90;;;;;;5035171;28;20022;-71
2023/05/08 16:01:32;;;;;;;13.93;9.25;;;19.70;99.90;;;;;;5034766;28;20540;-71
2023/05/08 16:03:58;;;;;;;11.38;9.05;;;19.60;99.90;;;;;;5036378;28;20076;-72
2023/05/08 16:06:23;;;;;;;12.15;9.52;;;19.60;99.90;;;;;;5037665;28;20030;-72
2023/05/08 16:08:50;;;;;;;12.10;9.10;;;19.60;99.90;;;;;;5042250;28;20022;-72
2023/05/08 16:11:16;;;;;;;12.90;9.30;;;19.60;99.90;;;;;;5034961;28;20512;-72
2023/05/08 16:13:41;;;;;;;9.98;8.95;;;19.60;99.90;;;;;;5054091;23;20025;-70
2023/05/08 16:16:07;;;;;;;11.57;9.45;;;19.60;99.90;;;;;;5014656;28;20497;-71
2023/05/08 16:18:32;;;;;;;10.43;9.20;;;19.60;99.90;;;;;;5012336;28;20046;-70
2023/05/08 16:20:58;;;;;;;10.32;9.23;;;19.50;99.90;;;;;;5010025;28;20409;-69
2023/05/08 16:23:23;;;;;;;11.65;9.45;;;19.40;99.90;;;;;;5012380;28;20034;-70
2023/05/08 16:25:49;;;;;;;10.15;8.80;;;19.50;99.90;;;;;;4994211;28;20497;-72
2023/05/08 16:28:15;;;;;;;10.48;8.68;;;19.50;99.90;;;;;;4994594;28;20018;-71
2023/05/08 16:30:40;;;;;;;12.68;9.30;;;19.40;99.90;;;;;;4994236;28;20089;-70
2023/05/08 16:33:06;;;;;;;12.05;9.32;;;19.50;99.90;;;;;;4996351;28;20035;-70
2023/05/08 16:35:32;;;;;;;11.02;9.88;;;19.50;99.90;;;;;;4991796;28;20057;-71
2023/05/08 16:37:58;;;;;;;11.85;9.23;;;19.40;99.90;;;;;;4992708;28;20030;-71